createdAt,value
2023-04-28T00:00:07.919Z,71.80
2023-04-28T00:02:34.778Z,71.51
2023-04-28T00:05:02.093Z,71.32
2023-04-28T00:07:28.896Z,69.71
2023-04-28T00:09:57.079Z,69.82
2023-04-28T00:12:24.086Z,69.56
2023-04-28T00:14:51.182Z,70.98
2023-04-28T00:17:18.039Z,71.11
2023-04-28T00:19:45.294Z,70.91
2023-04-28T00:22:12.163Z,70.80
2023-04-28T00:24:38.880Z,71.85
2023-04-28T00:27:05.703Z,71.40
2023-04-28T00:29:32.801Z,71.02
2023-04-28T00:31:59.705Z,70.40
2023-04-28T00:34:26.560Z,70.81
2023-04-28T00:36:53.461Z,71.71
2023-04-28T00:39:23.077Z,71.59
2023-04-28T00:41:49.948Z,71.91
2023-04-28T00:44:17.459Z,72.44
2023-04-28T00:46:44.649Z,72.18
2023-04-28T00:49:11.919Z,72.49
2023-04-28T00:51:38.841Z,72.23
2023-04-28T00:54:06.666Z,71.31
2023-04-28T00:56:33.948Z,72.09
2023-04-28T00:59:00.997Z,72.24
2023-04-28T01:01:28.077Z,72.63
2023-04-28T01:03:55.148Z,72.56
2023-04-28T01:06:23.597Z,73.07
2023-04-28T01:08:53.523Z,72.93
2023-04-28T01:11:20.691Z,73.17
2023-04-28T01:14:00.243Z,73.23
2023-04-28T01:16:30.311Z,73.48
2023-04-28T01:18:58.401Z,73.64
2023-04-28T01:21:32.643Z,73.96
2023-04-28T01:24:06.725Z,74.52
2023-04-28T01:26:33.489Z,74.28
2023-04-28T01:29:01.721Z,74.24
2023-04-28T01:31:31.183Z,74.22
2023-04-28T01:33:58.444Z,74.59
2023-04-28T01:36:27.355Z,74.68
2023-04-28T01:38:55.081Z,74.41
2023-04-28T01:41:22.551Z,74.72
2023-04-28T01:43:49.485Z,74.08
2023-04-28T01:46:16.403Z,73.75
2023-04-28T01:48:43.156Z,74.50
2023-04-28T01:51:09.866Z,74.73
2023-04-28T01:53:38.910Z,75.21
2023-04-28T01:56:05.684Z,75.11
2023-04-28T01:58:32.435Z,74.60
2023-04-28T02:00:59.391Z,75.25
2023-04-28T02:03:28.101Z,75.84
2023-04-28T02:05:55.011Z,75.74
2023-04-28T02:08:21.874Z,77.78
2023-04-28T02:10:48.612Z,79.66
2023-04-28T02:13:17.053Z,80.67
2023-04-28T02:15:44.306Z,79.86
2023-04-28T02:18:11.212Z,80.21
2023-04-28T02:20:40.310Z,80.55
2023-04-28T02:23:08.416Z,79.88
2023-04-28T02:25:35.270Z,80.65
2023-04-28T02:28:02.330Z,80.50
2023-04-28T02:30:29.087Z,80.37
2023-04-28T02:32:56.430Z,80.71
2023-04-28T02:35:24.060Z,81.13
2023-04-28T02:37:51.357Z,81.23
2023-04-28T02:40:18.960Z,80.83
2023-04-28T02:42:45.705Z,80.90
2023-04-28T02:45:12.703Z,80.83
2023-04-28T02:47:39.880Z,81.12
2023-04-28T02:50:07.987Z,80.93
2023-04-28T02:52:34.853Z,81.21
2023-04-28T02:55:03.745Z,80.83
2023-04-28T02:57:31.270Z,81.29
2023-04-28T02:59:58.080Z,81.37
2023-04-28T03:02:27.941Z,81.32
2023-04-28T03:04:54.799Z,81.47
2023-04-28T03:07:21.528Z,81.62
2023-04-28T03:09:48.655Z,80.90
2023-04-28T03:12:15.491Z,81.29
2023-04-28T03:14:42.341Z,81.16
2023-04-28T03:17:09.771Z,81.54
2023-04-28T03:19:36.984Z,81.22
2023-04-28T03:22:03.762Z,81.60
2023-04-28T03:24:31.808Z,82.18
2023-04-28T03:26:59.314Z,82.53
2023-04-28T03:29:26.188Z,82.32
2023-04-28T03:31:53.032Z,82.22
2023-04-28T03:34:19.936Z,81.96
2023-04-28T03:36:46.680Z,82.25
2023-04-28T03:39:22.401Z,82.32
2023-04-28T03:41:49.162Z,82.67
2023-04-28T03:44:38.936Z,82.63
2023-04-28T03:47:07.504Z,82.69
2023-04-28T03:49:35.488Z,83.18
2023-04-28T03:52:04.528Z,82.69
2023-04-28T03:54:31.516Z,82.82
2023-04-28T03:57:00.811Z,82.95
2023-04-28T03:59:27.832Z,82.68
2023-04-28T04:01:54.491Z,82.51
2023-04-28T04:04:22.407Z,82.50
2023-04-28T04:06:49.664Z,82.59
2023-04-28T04:09:16.988Z,82.43
2023-04-28T04:11:43.714Z,83.16
2023-04-28T04:14:11.114Z,83.21
2023-04-28T04:16:38.063Z,83.17
2023-04-28T04:19:05.601Z,83.60
2023-04-28T04:21:42.366Z,83.04
2023-04-28T04:24:09.254Z,82.93
2023-04-28T04:26:35.986Z,83.73
2023-04-28T04:29:12.882Z,83.48
2023-04-28T04:31:39.939Z,83.86
2023-04-28T04:34:07.283Z,84.81
2023-04-28T04:36:34.070Z,85.43
2023-04-28T04:39:00.892Z,85.43
2023-04-28T04:41:28.052Z,85.32
2023-04-28T04:44:12.600Z,85.01
2023-04-28T04:46:43.948Z,85.27
2023-04-28T04:49:10.856Z,84.85
2023-04-28T04:51:37.545Z,84.60
2023-04-28T04:54:04.770Z,84.42
2023-04-28T04:56:31.879Z,84.54
2023-04-28T04:58:59.066Z,85.78
2023-04-28T05:01:37.697Z,86.81
2023-04-28T05:04:05.126Z,87.19
2023-04-28T05:06:32.106Z,88.05
2023-04-28T05:08:59.392Z,87.92
2023-04-28T05:11:26.869Z,87.29
2023-04-28T05:13:56.603Z,87.04
2023-04-28T05:16:25.351Z,87.16
2023-04-28T05:19:01.674Z,86.91
2023-04-28T05:21:28.703Z,86.95
2023-04-28T05:23:56.093Z,86.93
2023-04-28T05:26:23.363Z,86.58
2023-04-28T05:28:53.523Z,86.63
2023-04-28T05:31:20.367Z,87.51
2023-04-28T05:33:47.626Z,87.81
2023-04-28T05:36:16.968Z,87.60
2023-04-28T05:38:45.285Z,87.28
2023-04-28T05:41:12.585Z,87.47
2023-04-28T05:43:40.678Z,87.15
2023-04-28T05:46:18.316Z,86.86
2023-04-28T05:48:49.143Z,86.53
2023-04-28T05:51:16.216Z,86.57
2023-04-28T05:53:43.510Z,86.50
2023-04-28T05:56:10.371Z,86.43
2023-04-28T05:58:38.229Z,86.40
2023-04-28T06:01:05.980Z,86.70
2023-04-28T06:03:33.053Z,86.51
2023-04-28T06:06:00.117Z,86.19
2023-04-28T06:08:27.374Z,86.36
2023-04-28T06:10:54.243Z,86.45
2023-04-28T06:13:21.272Z,85.85
2023-04-28T06:15:48.086Z,85.86
2023-04-28T06:18:16.462Z,85.70
2023-04-28T06:20:43.226Z,85.64
2023-04-28T06:23:10.217Z,85.92
2023-04-28T06:25:43.132Z,85.89
2023-04-28T06:28:09.918Z,86.12
2023-04-28T06:30:36.851Z,85.41
2023-04-28T06:33:03.719Z,85.60
2023-04-28T06:35:30.606Z,85.40
2023-04-28T06:37:57.769Z,85.47
2023-04-28T06:40:24.561Z,84.56
2023-04-28T06:42:54.937Z,83.91
2023-04-28T06:45:33.649Z,82.49
2023-04-28T06:48:00.455Z,82.00
2023-04-28T06:50:29.976Z,82.46
2023-04-28T06:52:57.362Z,81.89
2023-04-28T06:55:24.351Z,81.87
2023-04-28T06:57:51.142Z,81.90
2023-04-28T07:00:18.092Z,82.29
2023-04-28T07:02:44.940Z,82.21
2023-04-28T07:05:13.078Z,82.27
2023-04-28T07:07:40.997Z,82.02
2023-04-28T07:10:08.305Z,81.49
2023-04-28T07:12:35.025Z,81.57
2023-04-28T07:15:01.802Z,79.85
2023-04-28T07:17:28.590Z,80.61
2023-04-28T07:19:55.327Z,81.62
2023-04-28T07:22:22.096Z,80.72
2023-04-28T07:24:48.921Z,77.63
2023-04-28T07:27:15.643Z,73.42
2023-04-28T07:29:42.549Z,73.76
2023-04-28T07:32:10.780Z,73.05
2023-04-28T07:34:37.620Z,74.07
2023-04-28T07:37:04.775Z,72.76
2023-04-28T07:39:33.982Z,71.08
2023-04-28T07:42:02.833Z,70.80
2023-04-28T07:44:30.309Z,71.22
2023-04-28T07:46:57.464Z,71.86
2023-04-28T07:49:24.224Z,70.17
2023-04-28T07:51:53.691Z,69.74
2023-04-28T07:54:20.674Z,70.94
2023-04-28T07:56:48.090Z,71.25
2023-04-28T07:59:14.989Z,69.84
2023-04-28T08:01:42.928Z,70.31
2023-04-28T08:04:10.073Z,70.95
2023-04-28T08:06:37.092Z,73.26
2023-04-28T08:09:05.914Z,72.66
2023-04-28T08:11:33.578Z,73.13
2023-04-28T08:14:03.211Z,73.05
2023-04-28T08:16:32.315Z,70.99
2023-04-28T08:19:00.470Z,71.42
2023-04-28T08:21:27.553Z,72.24
2023-04-28T08:23:56.070Z,72.27
2023-04-28T08:26:24.716Z,73.04
2023-04-28T08:28:51.781Z,72.08
2023-04-28T08:31:18.543Z,71.15
2023-04-28T08:33:48.562Z,71.74
2023-04-28T08:36:15.550Z,72.19
2023-04-28T08:38:43.165Z,72.52
2023-04-28T08:41:10.130Z,73.64
2023-04-28T08:43:37.001Z,74.39
2023-04-28T08:46:07.294Z,73.40
2023-04-28T08:48:43.883Z,72.45
2023-04-28T08:51:16.379Z,72.36
2023-04-28T08:54:11.754Z,72.34
2023-04-28T08:56:34.977Z,71.55
2023-04-28T08:59:05.611Z,72.84
2023-04-28T09:01:32.517Z,70.74
2023-04-28T09:04:03.583Z,72.59
2023-04-28T09:06:39.990Z,71.08
2023-04-28T09:09:23.287Z,69.92
2023-04-28T09:11:56.166Z,70.00
2023-04-28T09:14:24.158Z,68.94
2023-04-28T09:16:51.886Z,70.16
2023-04-28T09:19:19.386Z,69.16
2023-04-28T09:21:57.083Z,68.33
2023-04-28T09:24:38.312Z,70.33
2023-04-28T09:27:07.636Z,71.14
2023-04-28T09:29:34.509Z,71.63
2023-04-28T09:32:18.098Z,71.92
2023-04-28T09:34:53.877Z,71.50
2023-04-28T09:37:27.455Z,71.59
2023-04-28T09:39:55.327Z,71.91
2023-04-28T09:42:37.179Z,71.70
2023-04-28T09:45:14.728Z,71.49
2023-04-28T09:47:43.422Z,70.52
2023-04-28T09:50:15.070Z,70.30
2023-04-28T09:52:48.980Z,70.74
2023-04-28T09:55:16.256Z,69.72
2023-04-28T09:57:44.825Z,68.50
2023-04-28T10:00:11.933Z,68.86
2023-04-28T10:02:43.121Z,69.38
2023-04-28T10:05:11.702Z,69.16
2023-04-28T10:07:39.371Z,68.19
2023-04-28T10:10:07.844Z,70.86
2023-04-28T10:12:35.304Z,70.98
2023-04-28T10:15:02.335Z,70.32
2023-04-28T10:17:29.777Z,67.78
2023-04-28T10:19:57.558Z,68.35
2023-04-28T10:22:43.244Z,66.91
2023-04-28T10:25:13.064Z,67.88
2023-04-28T10:27:42.365Z,67.54
2023-04-28T10:30:27.434Z,67.70
2023-04-28T10:33:13.675Z,68.97
2023-04-28T10:35:45.169Z,67.60
2023-04-28T10:38:14.860Z,68.88
2023-04-28T10:40:42.665Z,68.98
2023-04-28T10:43:13.586Z,69.63
2023-04-28T10:45:49.457Z,69.42
2023-04-28T10:48:17.202Z,69.35
2023-04-28T10:51:19.294Z,68.21
2023-04-28T10:53:50.386Z,68.01
2023-04-28T10:56:18.730Z,66.35
2023-04-28T10:58:47.034Z,66.18
2023-04-28T11:01:24.858Z,66.63
2023-04-28T11:04:00.167Z,68.19
2023-04-28T11:06:29.536Z,67.49
2023-04-28T11:08:58.728Z,67.67
2023-04-28T11:11:26.745Z,67.25
2023-04-28T11:13:56.080Z,66.43
2023-04-28T11:16:25.034Z,66.42
2023-04-28T11:18:55.877Z,65.62
2023-04-28T11:21:24.461Z,67.57
2023-04-28T11:23:51.782Z,65.33
2023-04-28T11:26:23.857Z,66.24
2023-04-28T11:28:53.115Z,65.22
2023-04-28T11:31:24.374Z,65.70
2023-04-28T11:33:58.396Z,68.94
2023-04-28T11:36:33.712Z,66.95
2023-04-28T11:39:00.650Z,66.29
2023-04-28T11:41:27.610Z,66.01
2023-04-28T11:43:54.790Z,66.71
2023-04-28T11:46:23.546Z,64.57
2023-04-28T11:49:01.578Z,65.21
2023-04-28T11:51:38.916Z,64.44
2023-04-28T11:54:12.073Z,63.79
2023-04-28T11:56:39.700Z,62.73
2023-04-28T11:59:11.490Z,63.87
2023-04-28T12:01:57.432Z,66.33
2023-04-28T12:04:27.777Z,65.09
2023-04-28T12:07:03.686Z,63.29
2023-04-28T12:09:31.406Z,62.63
2023-04-28T12:12:00.424Z,63.05
2023-04-28T12:14:27.330Z,64.09
2023-04-28T12:16:54.270Z,66.06
2023-04-28T12:19:21.198Z,67.04
2023-04-28T12:22:05.459Z,67.46
2023-04-28T12:24:33.305Z,67.35
2023-04-28T12:27:16.848Z,66.99
2023-04-28T12:29:46.559Z,68.11
2023-04-28T12:32:14.133Z,65.06
2023-04-28T12:34:42.213Z,66.41
2023-04-28T12:37:09.299Z,66.45
2023-04-28T12:39:39.478Z,68.01
2023-04-28T12:42:07.435Z,67.40
2023-04-28T12:44:37.721Z,69.74
2023-04-28T12:47:07.401Z,69.37
2023-04-28T12:49:35.809Z,69.76
2023-04-28T12:52:03.644Z,69.41
2023-04-28T12:54:31.103Z,70.08
2023-04-28T12:56:58.053Z,69.78
2023-04-28T12:59:25.091Z,69.16
2023-04-28T13:01:51.948Z,68.55
2023-04-28T13:04:19.511Z,69.67
2023-04-28T13:06:46.568Z,70.83
2023-04-28T13:09:15.464Z,69.61
2023-04-28T13:11:42.800Z,69.76
2023-04-28T13:14:09.842Z,69.06
2023-04-28T13:16:37.163Z,68.34
2023-04-28T13:19:04.371Z,69.42
2023-04-28T13:21:32.149Z,67.60
2023-04-28T13:23:58.985Z,68.89
2023-04-28T13:26:26.958Z,68.06
2023-04-28T13:28:53.702Z,68.26
2023-04-28T13:31:21.060Z,66.86
2023-04-28T13:33:47.973Z,67.84
2023-04-28T13:36:14.732Z,68.40
2023-04-28T13:38:41.578Z,68.83
2023-04-28T13:41:08.325Z,66.99
2023-04-28T13:43:35.226Z,67.14
2023-04-28T13:46:02.151Z,68.16
2023-04-28T13:48:29.411Z,66.64
2023-04-28T13:50:56.341Z,68.13
2023-04-28T13:53:23.166Z,68.21
2023-04-28T13:55:51.518Z,67.91
2023-04-28T13:58:18.281Z,69.01
2023-04-28T14:00:45.272Z,67.45
2023-04-28T14:03:12.401Z,67.52
2023-04-28T14:05:48.821Z,67.02
2023-04-28T14:08:19.317Z,67.96
2023-04-28T14:10:48.196Z,69.76
2023-04-28T14:13:15.597Z,68.59
2023-04-28T14:15:51.271Z,67.42
2023-04-28T14:18:25.111Z,65.32
2023-04-28T14:20:52.020Z,65.94
2023-04-28T14:23:18.771Z,67.14
2023-04-28T14:25:45.657Z,67.30
2023-04-28T14:28:12.434Z,65.52
2023-04-28T14:30:39.125Z,66.43
2023-04-28T14:33:06.894Z,65.91
2023-04-28T14:35:34.683Z,65.14
2023-04-28T14:38:03.743Z,64.83
2023-04-28T14:40:30.605Z,66.61
2023-04-28T14:42:57.609Z,63.88
2023-04-28T14:45:24.525Z,65.67
2023-04-28T14:47:51.327Z,66.18
2023-04-28T14:50:18.769Z,64.54
2023-04-28T14:52:45.880Z,64.58
2023-04-28T14:55:13.911Z,65.37
2023-04-28T14:57:41.019Z,65.63
2023-04-28T15:00:08.365Z,63.87
2023-04-28T15:02:36.202Z,63.96
2023-04-28T15:05:03.769Z,63.67
2023-04-28T15:07:33.344Z,63.74
2023-04-28T15:10:00.766Z,64.33
2023-04-28T15:12:30.568Z,65.35
2023-04-28T15:14:58.380Z,65.53
2023-04-28T15:17:25.491Z,65.41
2023-04-28T15:19:52.499Z,66.45
2023-04-28T15:22:19.340Z,65.95
2023-04-28T15:24:46.307Z,67.58
2023-04-28T15:27:13.302Z,68.36
2023-04-28T15:29:40.094Z,68.73
2023-04-28T15:32:07.082Z,68.29
2023-04-28T15:34:34.247Z,69.38
2023-04-28T15:37:01.511Z,69.87
2023-04-28T15:39:28.636Z,70.36
2023-04-28T15:41:56.263Z,70.59
2023-04-28T15:44:23.259Z,70.98
2023-04-28T15:46:52.120Z,71.52
2023-04-28T15:49:18.913Z,72.44
2023-04-28T15:51:45.803Z,72.41
2023-04-28T15:54:13.111Z,73.04
2023-04-28T15:56:40.031Z,72.18
2023-04-28T15:59:06.807Z,72.99
2023-04-28T16:01:33.942Z,73.35
2023-04-28T16:04:01.591Z,73.50
2023-04-28T16:06:30.333Z,73.84
2023-04-28T16:08:57.098Z,74.73
2023-04-28T16:11:24.426Z,74.33
2023-04-28T16:13:51.452Z,74.77
2023-04-28T16:16:18.462Z,74.79
2023-04-28T16:18:45.262Z,74.37
2023-04-28T16:21:12.360Z,74.39
2023-04-28T16:23:39.341Z,73.73
2023-04-28T16:26:06.168Z,73.73
2023-04-28T16:28:33.003Z,74.53
2023-04-28T16:30:59.686Z,75.16
2023-04-28T16:33:26.530Z,75.12
2023-04-28T16:35:55.351Z,74.82
2023-04-28T16:38:22.197Z,73.91
2023-04-28T16:40:49.479Z,73.31
2023-04-28T16:43:16.569Z,73.46
2023-04-28T16:45:43.690Z,73.55
2023-04-28T16:48:10.456Z,74.11
2023-04-28T16:50:39.102Z,73.19
2023-04-28T16:53:08.108Z,72.57
2023-04-28T16:55:36.609Z,72.73
2023-04-28T16:58:03.755Z,73.77
2023-04-28T17:00:31.121Z,73.22
2023-04-28T17:02:58.039Z,73.01
2023-04-28T17:05:24.877Z,73.05
2023-04-28T17:07:52.008Z,73.59
2023-04-28T17:10:18.885Z,73.88
2023-04-28T17:12:45.803Z,73.51
2023-04-28T17:15:18.542Z,73.75
2023-04-28T17:17:50.117Z,73.89
2023-04-28T17:20:19.416Z,74.08
2023-04-28T17:22:47.875Z,74.10
2023-04-28T17:25:16.065Z,73.85
2023-04-28T17:27:43.511Z,74.04
2023-04-28T17:30:11.565Z,73.42
2023-04-28T17:32:38.736Z,73.93
2023-04-28T17:35:06.249Z,74.02
2023-04-28T17:37:34.280Z,74.33
2023-04-28T17:40:02.079Z,74.75
2023-04-28T17:42:31.524Z,74.32
2023-04-28T17:44:58.471Z,74.67
2023-04-28T17:47:25.360Z,75.08
2023-04-28T17:49:52.493Z,75.46
2023-04-28T17:52:19.244Z,75.13
2023-04-28T17:54:46.226Z,75.32
2023-04-28T17:57:13.407Z,75.43
2023-04-28T17:59:40.822Z,75.88
2023-04-28T18:02:11.339Z,76.19
2023-04-28T18:04:38.447Z,76.37
2023-04-28T18:07:07.261Z,76.15
2023-04-28T18:09:34.133Z,76.38
2023-04-28T18:12:03.210Z,76.41
2023-04-28T18:14:31.325Z,76.87
2023-04-28T18:16:58.825Z,76.94
2023-04-28T18:19:27.619Z,76.71
2023-04-28T18:21:56.928Z,76.99
2023-04-28T18:24:24.505Z,77.31
2023-04-28T18:26:51.506Z,77.82
2023-04-28T18:29:19.031Z,78.04
2023-04-28T18:31:46.453Z,78.51
2023-04-28T18:34:13.441Z,78.53
2023-04-28T18:36:40.583Z,78.92
2023-04-28T18:39:08.927Z,78.89
2023-04-28T18:41:37.058Z,79.25
2023-04-28T18:44:04.649Z,79.32
2023-04-28T18:46:31.566Z,79.66
2023-04-28T18:48:58.486Z,80.37
2023-04-28T18:51:25.405Z,80.16
2023-04-28T18:53:52.143Z,80.18
2023-04-28T18:56:20.989Z,80.64
2023-04-28T18:58:48.026Z,80.43
2023-04-28T19:01:16.090Z,80.64
2023-04-28T19:03:44.041Z,80.44
2023-04-28T19:06:12.141Z,80.96
2023-04-28T19:08:39.369Z,80.69
2023-04-28T19:11:07.373Z,80.54
2023-04-28T19:13:34.762Z,80.74
2023-04-28T19:16:02.278Z,81.00
2023-04-28T19:18:31.376Z,81.13
2023-04-28T19:21:01.014Z,80.91
2023-04-28T19:23:29.604Z,80.92
2023-04-28T19:25:57.819Z,81.00
2023-04-28T19:28:26.475Z,81.08
2023-04-28T19:30:54.443Z,81.41
2023-04-28T19:33:25.546Z,81.31
2023-04-28T19:35:58.477Z,81.17
2023-04-28T19:38:25.699Z,81.35
2023-04-28T19:41:02.246Z,81.27
2023-04-28T19:43:35.492Z,81.13
2023-04-28T19:46:03.534Z,81.24
2023-04-28T19:48:30.827Z,81.40
2023-04-28T19:50:58.213Z,81.12
2023-04-28T19:53:25.016Z,81.26
2023-04-28T19:55:51.866Z,81.08
2023-04-28T19:58:19.412Z,81.17
2023-04-28T20:00:48.050Z,81.20
2023-04-28T20:03:15.083Z,80.95
2023-04-28T20:05:42.468Z,80.97
2023-04-28T20:08:09.668Z,80.79
2023-04-28T20:10:36.493Z,80.97
2023-04-28T20:13:03.395Z,80.99
2023-04-28T20:15:30.808Z,81.00
2023-04-28T20:17:57.864Z,80.55
2023-04-28T20:20:25.853Z,80.41
2023-04-28T20:22:53.077Z,80.48
2023-04-28T20:25:20.333Z,80.31
2023-04-28T20:27:49.664Z,80.56
2023-04-28T20:30:17.412Z,80.59
2023-04-28T20:32:44.499Z,80.39
2023-04-28T20:35:11.312Z,80.62
2023-04-28T20:37:38.773Z,80.75
2023-04-28T20:40:06.807Z,80.54
2023-04-28T20:42:36.214Z,80.38
2023-04-28T20:45:03.387Z,80.41
2023-04-28T20:47:30.750Z,80.54
2023-04-28T20:49:57.709Z,80.39
2023-04-28T20:52:24.538Z,80.32
2023-04-28T20:54:54.144Z,80.69
2023-04-28T20:57:21.623Z,80.62
2023-04-28T20:59:48.636Z,80.62
2023-04-28T21:02:15.715Z,80.48
2023-04-28T21:04:42.606Z,80.84
2023-04-28T21:07:09.746Z,80.71
2023-04-28T21:09:37.636Z,80.62
2023-04-28T21:12:04.898Z,80.86
2023-04-28T21:14:35.749Z,80.56
2023-04-28T21:17:03.877Z,80.86
2023-04-28T21:19:32.697Z,80.91
2023-04-28T21:21:59.599Z,80.86
2023-04-28T21:24:26.347Z,80.43
2023-04-28T21:26:53.182Z,80.82
2023-04-28T21:29:19.976Z,80.67
2023-04-28T21:31:47.430Z,80.70
2023-04-28T21:34:14.615Z,81.00
2023-04-28T21:36:41.551Z,81.02
2023-04-28T21:39:08.557Z,81.00
2023-04-28T21:41:35.299Z,81.04
2023-04-28T21:44:02.267Z,80.90
2023-04-28T21:46:29.498Z,81.01
2023-04-28T21:48:56.383Z,80.96
2023-04-28T21:51:23.334Z,81.07
2023-04-28T21:53:50.157Z,80.78
2023-04-28T21:56:17.338Z,80.94
2023-04-28T21:58:45.141Z,80.88
2023-04-28T22:01:16.442Z,81.15
2023-04-28T22:03:44.454Z,81.27
2023-04-28T22:06:12.874Z,81.27
2023-04-28T22:08:39.880Z,81.30
2023-04-28T22:11:06.961Z,81.66
2023-04-28T22:13:33.809Z,81.76
2023-04-28T22:16:01.802Z,82.02
2023-04-28T22:18:29.373Z,81.75
2023-04-28T22:20:56.230Z,81.58
2023-04-28T22:23:23.129Z,81.60
2023-04-28T22:25:49.841Z,81.26
2023-04-28T22:28:16.648Z,81.12
2023-04-28T22:30:46.830Z,81.35
2023-04-28T22:33:14.000Z,81.25
2023-04-28T22:35:40.920Z,81.17
2023-04-28T22:38:08.078Z,81.67
2023-04-28T22:40:34.867Z,81.84
2023-04-28T22:43:02.077Z,81.90
2023-04-28T22:45:29.049Z,81.82
2023-04-28T22:47:56.799Z,82.19
2023-04-28T22:50:23.859Z,82.59
2023-04-28T22:52:50.703Z,82.60
2023-04-28T22:55:19.339Z,82.83
2023-04-28T22:57:46.306Z,83.01
2023-04-28T23:00:16.143Z,82.90
2023-04-28T23:02:43.164Z,82.76
2023-04-28T23:05:10.114Z,82.62
2023-04-28T23:07:36.986Z,83.14
2023-04-28T23:10:05.171Z,83.26
2023-04-28T23:12:32.030Z,82.71
2023-04-28T23:14:58.767Z,82.39
2023-04-28T23:17:25.755Z,82.66
2023-04-28T23:19:52.618Z,81.80
2023-04-28T23:22:19.459Z,82.26
2023-04-28T23:24:46.443Z,82.27
2023-04-28T23:27:13.356Z,82.49
2023-04-28T23:29:40.180Z,82.64
2023-04-28T23:32:07.030Z,82.81
2023-04-28T23:34:33.912Z,82.61
2023-04-28T23:37:01.252Z,82.84
2023-04-28T23:39:30.124Z,82.78
2023-04-28T23:41:57.169Z,83.09
2023-04-28T23:44:23.877Z,83.57
2023-04-28T23:46:51.266Z,83.30
2023-04-28T23:49:18.054Z,83.24
2023-04-28T23:51:44.806Z,83.26
2023-04-28T23:54:11.577Z,83.29
2023-04-28T23:56:38.380Z,83.16
2023-04-28T23:59:05.472Z,83.07
